Lady Debora — V2QG7 — position and weather

sailwx.info

Track history (hours):
 
Tides and Currents Weather Stations Pressure Air Temp Water Temp Dewpoint Dewpoint Depression Visibility Wind Speed Wind Dir Waves Ship Positions

Lady Debora

Last reported at 2018-Apr-20 14:32 UTC. Time now 2018-Apr-20 20:32 UTC.
Position N 37°14' W 001°03'.

Length 107 m; draft 5.5 m.

Type: Cargo ship. MMSI: 304010760.

Date/timePositionNaut miles runAvg speedWind from/ knotsBaromVisibWave heightAir tempDewpointWater temp
2018-Apr-20 14:32N 37°14' W 001°03'110.0
2018-Apr-20 14:25N 37°15' W 001°02'5 9.9
2018-Apr-20 13:57N 37°18' W 000°58'5 9.9
2018-Apr-20 13:28N 37°21' W 000°53'4 9.7
2018-Apr-20 13:00N 37°24' W 000°49'5 9.5
2018-Apr-20 12:30N 37°27' W 000°44'5 9.1
2018-Apr-20 12:00N 37°30' W 000°40'5 9.0
2018-Apr-20 11:30N 37°33' W 000°36'5 9.3
2018-Apr-20 11:00N 37°37' W 000°32'5 9.5
2018-Apr-20 10:30N 37°41' W 000°29'5 9.4
2018-Apr-20 10:00N 37°44' W 000°25'6 9.4
2018-Apr-20 09:22N 37°50' W 000°21'10 9.3
2018-Apr-20 08:19N 37°58' W 000°15'3 9.7
2018-Apr-20 08:00N 38°00' W 000°13'91 8.5
2018-Apr-19 21:17N 39°31' W 000°08'8 9.4
2018-Apr-19 20:29N 39°38' W 000°13'3 0.1
2018-Apr-18 16:26N 39°38' W 000°09'2 5.5
2018-Apr-18 16:01N 39°39' W 000°06'610.0
2018-Apr-18 15:23N 39°42' E 000°01'9810.4
2018-Apr-18 05:59N 40°44' E 001°40'1310.3
2018-Apr-18 04:45N 40°52' E 001°53'310.6
2018-Apr-18 04:30N 40°54' E 001°56'1210.7
2018-Apr-18 03:25N 41°01' E 002°07'711.6
2018-Apr-18 02:50N 41°06' E 002°15'411.5
2018-Apr-18 02:30N 41°08' E 002°18'611.4
2018-Apr-18 02:00N 41°12' E 002°24'611.2
2018-Apr-18 01:28N 41°16' E 002°30'511.3
2018-Apr-18 01:00N 41°19' E 002°36'611.1
2018-Apr-18 00:30N 41°22' E 002°42'127 9.9
2018-Apr-17 11:43N 43°20' E 003°45'4 8.5
2018-Apr-17 11:16N 43°24' E 003°44'1 3.1
2018-Apr-17 10:59N 43°24' E 003°43'  
2018-Apr-13 08:59N 37°43' W 000°23'4 9.1
2018-Apr-13 08:30N 37°39' W 000°26'4 8.7
2018-Apr-13 08:00N 37°36' W 000°29'4 8.7
2018-Apr-13 07:30N 37°32' W 000°33'4 9.0
2018-Apr-13 07:00N 37°29' W 000°37'6 9.6
2018-Apr-13 06:26N 37°25' W 000°42'4 9.3
2018-Apr-13 06:00N 37°23' W 000°45'5 9.4
2018-Apr-13 05:28N 37°19' W 000°50'4 9.3
2018-Apr-13 05:00N 37°17' W 000°54'5 9.1
2018-Apr-13 04:29N 37°14' W 000°59'216 9.2
2018-Apr-12 05:08N 35°56' W 005°09'110.3
2018-Apr-12 05:00N 35°55' W 005°11'5 9.8
2018-Apr-12 04:30N 35°55' W 005°17'2 4.5
2018-Apr-12 04:00N 35°54' W 005°19'0 0.2
2018-Apr-12 03:30N 35°54' W 005°19'0 0.0
2018-Apr-12 03:00N 35°54' W 005°19'0 0.0
2018-Apr-12 02:27N 35°54' W 005°19'0 0.0
2018-Apr-12 02:00N 35°54' W 005°19'0 0.0
2018-Apr-12 01:30N 35°54' W 005°19'0 0.0
2018-Apr-12 01:00N 35°54' W 005°19'0 0.0
2018-Apr-12 00:30N 35°54' W 005°19'1 1.1
2018-Apr-12 00:00N 35°54' W 005°19'2 4.3
2018-Apr-11 23:30N 35°56' W 005°20'0 0.6
2018-Apr-11 22:58N 35°55' W 005°20'0 0.0
2018-Apr-11 22:28N 35°55' W 005°20'0 0.0
2018-Apr-11 21:58N 35°55' W 005°20'0 0.1
2018-Apr-11 21:28N 35°55' W 005°20'0 0.0
2018-Apr-11 20:58N 35°55' W 005°20'0 0.0
2018-Apr-11 20:28N 35°55' W 005°20'0 0.0
2018-Apr-11 19:58N 35°55' W 005°20'0 0.0
2018-Apr-11 19:28N 35°55' W 005°20'0 0.0
2018-Apr-11 18:58N 35°55' W 005°20'0 0.5
2018-Apr-11 18:30N 35°55' W 005°20'3 6.0
2018-Apr-11 18:00N 35°57' W 005°23'612.1
2018-Apr-11 17:30N 35°56' W 005°30'  
Track history (hours):
 
Tides and Currents Weather Stations Pressure Air Temp Water Temp Dewpoint Dewpoint Depression Visibility Wind Speed Wind Dir Waves Ship Positions

Lady Debora

Last reported at 2018-Apr-20 14:32 UTC. Time now 2018-Apr-20 20:32 UTC.
Position N 37°14' W 001°03'.

Length 107 m; draft 5.5 m.

Type: Cargo ship. MMSI: 304010760.

Date/timePositionNaut miles runAvg speedWind from/ knotsBaromVisibWave heightAir tempDewpointWater temp
2018-Apr-20 14:32N 37°14' W 001°03'110.0
2018-Apr-20 14:25N 37°15' W 001°02'5 9.9
2018-Apr-20 13:57N 37°18' W 000°58'5 9.9
2018-Apr-20 13:28N 37°21' W 000°53'4 9.7
2018-Apr-20 13:00N 37°24' W 000°49'5 9.5
2018-Apr-20 12:30N 37°27' W 000°44'5 9.1
2018-Apr-20 12:00N 37°30' W 000°40'5 9.0
2018-Apr-20 11:30N 37°33' W 000°36'5 9.3
2018-Apr-20 11:00N 37°37' W 000°32'5 9.5
2018-Apr-20 10:30N 37°41' W 000°29'5 9.4
2018-Apr-20 10:00N 37°44' W 000°25'6 9.4
2018-Apr-20 09:22N 37°50' W 000°21'10 9.3
2018-Apr-20 08:19N 37°58' W 000°15'3 9.7
2018-Apr-20 08:00N 38°00' W 000°13'91 8.5
2018-Apr-19 21:17N 39°31' W 000°08'8 9.4
2018-Apr-19 20:29N 39°38' W 000°13'3 0.1
2018-Apr-18 16:26N 39°38' W 000°09'2 5.5
2018-Apr-18 16:01N 39°39' W 000°06'610.0
2018-Apr-18 15:23N 39°42' E 000°01'9810.4
2018-Apr-18 05:59N 40°44' E 001°40'1310.3
2018-Apr-18 04:45N 40°52' E 001°53'310.6
2018-Apr-18 04:30N 40°54' E 001°56'1210.7
2018-Apr-18 03:25N 41°01' E 002°07'711.6
2018-Apr-18 02:50N 41°06' E 002°15'411.5
2018-Apr-18 02:30N 41°08' E 002°18'611.4
2018-Apr-18 02:00N 41°12' E 002°24'611.2
2018-Apr-18 01:28N 41°16' E 002°30'511.3
2018-Apr-18 01:00N 41°19' E 002°36'611.1
2018-Apr-18 00:30N 41°22' E 002°42'127 9.9
2018-Apr-17 11:43N 43°20' E 003°45'4 8.5
2018-Apr-17 11:16N 43°24' E 003°44'1 3.1
2018-Apr-17 10:59N 43°24' E 003°43'  
2018-Apr-13 08:59N 37°43' W 000°23'4 9.1
2018-Apr-13 08:30N 37°39' W 000°26'4 8.7
2018-Apr-13 08:00N 37°36' W 000°29'4 8.7
2018-Apr-13 07:30N 37°32' W 000°33'4 9.0
2018-Apr-13 07:00N 37°29' W 000°37'6 9.6
2018-Apr-13 06:26N 37°25' W 000°42'4 9.3
2018-Apr-13 06:00N 37°23' W 000°45'5 9.4
2018-Apr-13 05:28N 37°19' W 000°50'4 9.3
2018-Apr-13 05:00N 37°17' W 000°54'5 9.1
2018-Apr-13 04:29N 37°14' W 000°59'216 9.2
2018-Apr-12 05:08N 35°56' W 005°09'110.3
2018-Apr-12 05:00N 35°55' W 005°11'5 9.8
2018-Apr-12 04:30N 35°55' W 005°17'2 4.5
2018-Apr-12 04:00N 35°54' W 005°19'0 0.2
2018-Apr-12 03:30N 35°54' W 005°19'0 0.0
2018-Apr-12 03:00N 35°54' W 005°19'0 0.0
2018-Apr-12 02:27N 35°54' W 005°19'0 0.0
2018-Apr-12 02:00N 35°54' W 005°19'0 0.0
2018-Apr-12 01:30N 35°54' W 005°19'0 0.0
2018-Apr-12 01:00N 35°54' W 005°19'0 0.0
2018-Apr-12 00:30N 35°54' W 005°19'1 1.1
2018-Apr-12 00:00N 35°54' W 005°19'2 4.3
2018-Apr-11 23:30N 35°56' W 005°20'0 0.6
2018-Apr-11 22:58N 35°55' W 005°20'0 0.0
2018-Apr-11 22:28N 35°55' W 005°20'0 0.0
2018-Apr-11 21:58N 35°55' W 005°20'0 0.1
2018-Apr-11 21:28N 35°55' W 005°20'0 0.0
2018-Apr-11 20:58N 35°55' W 005°20'0 0.0
2018-Apr-11 20:28N 35°55' W 005°20'0 0.0
2018-Apr-11 19:58N 35°55' W 005°20'0 0.0
2018-Apr-11 19:28N 35°55' W 005°20'0 0.0
2018-Apr-11 18:58N 35°55' W 005°20'0 0.5
2018-Apr-11 18:30N 35°55' W 005°20'3 6.0
2018-Apr-11 18:00N 35°57' W 005°23'612.1
2018-Apr-11 17:30N 35°56' W 005°30'  

Dump ship's entire track history